This is the latest recevied weather packets stored in our database for station/object ka8upw-1. If no packets are shown the sender has not sent any weather packets the latest 10 day(s).
| Time | Temp. | Humidity | Pressure | Rain* | Wind** | Luminosity | Snow |
|---|---|---|---|---|---|---|---|
| 1777876023 | 11.67° C | 59% | 1008.6 hPa | 0 mm | - | - | - |
| 1777874404 | 11.67° C | 58% | 1008.9 hPa | 0 mm | - | - | - |
| 1777871883 | 11.11° C | 61% | 1009.4 hPa | 0 mm | - | - | - |
| 1777870583 | 10.56° C | 64% | 1009.7 hPa | 0 mm | - | - | - |
| 1777865898 | 9.44° C | 69% | 1010.2 hPa | 0 mm | - | - | - |
| 1777864144 | 8.89° C | 71% | 1010.4 hPa | 0 mm | - | - | - |
| 1777862704 | 9.44° C | 72% | 1010.6 hPa | 0 mm | - | - | - |
| 1777861083 | 10° C | 72% | 1010.7 hPa | 0 mm | - | - | - |
| 1777858699 | 10° C | 72% | 1010.7 hPa | 0 mm | - | - | - |
| 1777850284 | 13.89° C | 46% | 1010.4 hPa | 0 mm | - | - | - |
| 1777843221 | 15° C | 44% | 1011 hPa | 0 mm | - | - | - |
| 1777842005 | 15° C | 44% | 1011.2 hPa | 0 mm | - | - | - |
| 1777841103 | 15° C | 43% | 1011.3 hPa | 0 mm | - | - | - |
| 1777840563 | 15° C | 43% | 1011.3 hPa | 0 mm | - | - | - |
| 1777839617 | 15.56° C | 44% | 1011.4 hPa | 0 mm | - | - | - |
| 1777836963 | 15° C | 44% | 1012.1 hPa | 0 mm | - | - | - |
| 1777835883 | 14.44° C | 45% | 1012.3 hPa | 0 mm | - | - | - |
| 1777833363 | 14.44° C | 44% | 1013 hPa | 0 mm | - | - | - |
| 1777830843 | 15° C | 43% | 1013.4 hPa | 0 mm | - | - | - |
| 1777829768 | 15° C | 45% | 1013.5 hPa | 0 mm | - | - | - |
| 1777822025 | 11.67° C | 54% | 1015 hPa | 0 mm | - | - | - |
| 1777818424 | 10° C | 61% | 1014.8 hPa | 0 mm | - | - | - |
| 1777812305 | 6.11° C | 66% | 1015.6 hPa | 0 mm | - | - | - |
| 1777810684 | 4.44° C | 75% | 1015.4 hPa | 0 mm | - | - | - |
| 1777808703 | 2.22° C | 82% | 1015.3 hPa | 0 mm | - | - | - |
* Rain latest hour (hover to see other rain measurements)
** Current wind speed in m/s (hover to see current wind gust speed)